Time;durP1;ratioP1;P1;durP2;ratioP2;P2;SDS_P1;SDS_P2;PMS_P1;PMS_P2;Temp;Humidity;BMP_temperature;BMP_pressure;BME280_temperature;BME280_humidity;BME280_pressure;Samples;Min_cycle;Max_cycle;Signal;HPM_P1;HPM_P2
2023/09/18 00:01:07;;;;;;;8.65;4.93;;;;;;;;;;5000523;28;20214;-64
2023/09/18 00:03:34;;;;;;;9.50;4.97;;;;;;;;;;5001271;28;20202;-64
2023/09/18 00:06:01;;;;;;;9.63;4.88;;;;;;;;;;4999418;28;20216;-65
2023/09/18 00:08:28;;;;;;;5.15;4.70;;;;;;;;;;5002116;28;20214;-64
2023/09/18 00:10:56;;;;;;;9.55;4.43;;;;;;;;;;5004305;28;20208;-64
2023/09/18 00:13:24;;;;;;;8.27;4.63;;;;;;;;;;5001946;28;20224;-64
2023/09/18 00:15:52;;;;;;;6.47;3.92;;;;;;;;;;5002962;28;20233;-64
2023/09/18 00:18:21;;;;;;;8.10;4.00;;;;;;;;;;5005333;28;20624;-63
2023/09/18 00:20:48;;;;;;;5.30;4.38;;;;;;;;;;5002399;28;20210;-63
2023/09/18 00:23:16;;;;;;;5.15;4.10;;;;;;;;;;5005526;28;20850;-63
2023/09/18 00:25:43;;;;;;;7.60;4.07;;;;;;;;;;5010834;28;20229;-63
2023/09/18 00:28:10;;;;;;;5.10;4.60;;;;;;;;;;5011647;28;20244;-63
2023/09/18 00:30:39;;;;;;;6.53;4.32;;;;;;;;;;5011080;28;20212;-64
2023/09/18 00:33:06;;;;;;;5.95;4.35;;;;;;;;;;5010740;28;20236;-63
2023/09/18 00:35:34;;;;;;;6.60;4.57;;;;;;;;;;5006965;28;20658;-63
2023/09/18 00:38:03;;;;;;;8.52;5.05;;;;;;;;;;5010401;28;20589;-63
2023/09/18 00:40:30;;;;;;;5.03;4.53;;;;;;;;;;5010938;28;20663;-64
2023/09/18 00:42:58;;;;;;;5.90;4.38;;;;;;;;;;5010372;28;20209;-63
2023/09/18 00:45:25;;;;;;;7.65;4.63;;;;;;;;;;5010709;28;20208;-63
2023/09/18 00:47:52;;;;;;;5.47;4.50;;;;;;;;;;5009979;28;20209;-64
2023/09/18 00:50:19;;;;;;;7.50;5.38;;;;;;;;;;5011064;28;20212;-63
2023/09/18 00:52:47;;;;;;;6.32;4.57;;;;;;;;;;5011594;28;20671;-63
2023/09/18 00:55:14;;;;;;;8.80;4.55;;;;;;;;;;5009269;28;20736;-64
2023/09/18 00:57:42;;;;;;;9.68;3.78;;;;;;;;;;5009245;28;20703;-63
2023/09/18 01:00:10;;;;;;;5.95;4.47;;;;;;;;;;5001103;28;20299;-64
2023/09/18 01:02:38;;;;;;;6.03;4.68;;;;;;;;;;5009077;28;20675;-63
2023/09/18 01:05:05;;;;;;;6.68;4.15;;;;;;;;;;5010388;28;20212;-64
2023/09/18 01:07:32;;;;;;;4.65;4.35;;;;;;;;;;5006183;28;20204;-63
2023/09/18 01:10:01;;;;;;;6.50;4.30;;;;;;;;;;5010657;28;20213;-64
2023/09/18 01:12:32;;;;;;;4.55;4.18;;;;;;;;;;5011608;28;20209;-63
2023/09/18 01:15:04;;;;;;;5.90;4.28;;;;;;;;;;5010811;28;20269;-63
2023/09/18 01:17:32;;;;;;;4.57;4.20;;;;;;;;;;5011313;28;20228;-64
2023/09/18 01:19:59;;;;;;;6.00;4.50;;;;;;;;;;5011433;28;20580;-63
2023/09/18 01:22:26;;;;;;;5.00;4.32;;;;;;;;;;5011288;28;20213;-64
2023/09/18 01:24:54;;;;;;;4.53;3.97;;;;;;;;;;5010436;28;20212;-63
2023/09/18 01:27:21;;;;;;;5.13;4.20;;;;;;;;;;5011503;28;20208;-63
2023/09/18 01:29:49;;;;;;;4.43;4.07;;;;;;;;;;5011069;28;20212;-63
2023/09/18 01:32:17;;;;;;;4.22;3.92;;;;;;;;;;5011123;28;20235;-64
2023/09/18 01:34:53;;;;;;;8.13;4.15;;;;;;;;;;5010818;28;20297;-63
2023/09/18 01:37:22;;;;;;;5.80;4.15;;;;;;;;;;4992322;28;20232;-63
2023/09/18 01:39:49;;;;;;;5.20;4.00;;;;;;;;;;5010909;28;20228;-63
2023/09/18 01:42:18;;;;;;;5.05;4.57;;;;;;;;;;5010624;28;20204;-63
2023/09/18 01:44:45;;;;;;;6.80;4.45;;;;;;;;;;5010564;28;20217;-63
2023/09/18 01:47:14;;;;;;;7.05;4.50;;;;;;;;;;5010599;28;20229;-63
2023/09/18 01:49:42;;;;;;;4.68;4.00;;;;;;;;;;5010180;28;20209;-63
2023/09/18 01:52:09;;;;;;;4.28;3.97;;;;;;;;;;5010882;28;20562;-63
2023/09/18 01:54:37;;;;;;;5.10;4.63;;;;;;;;;;4997746;28;20229;-63
2023/09/18 01:57:04;;;;;;;4.57;4.13;;;;;;;;;;5010633;28;20632;-63
2023/09/18 01:59:33;;;;;;;4.45;4.05;;;;;;;;;;5010972;28;20233;-64
2023/09/18 02:02:01;;;;;;;5.70;4.10;;;;;;;;;;5010959;28;20216;-63
2023/09/18 02:04:28;;;;;;;7.80;4.45;;;;;;;;;;5010904;28;20200;-64
2023/09/18 02:06:55;;;;;;;5.55;4.10;;;;;;;;;;5010397;28;20204;-63
2023/09/18 02:09:22;;;;;;;5.45;4.55;;;;;;;;;;5010921;28;20240;-63
2023/09/18 02:11:49;;;;;;;6.35;4.60;;;;;;;;;;5010687;28;20209;-63
2023/09/18 02:14:16;;;;;;;5.65;4.55;;;;;;;;;;5010077;28;20291;-63
2023/09/18 02:16:45;;;;;;;6.13;4.32;;;;;;;;;;5010394;28;20205;-63
2023/09/18 02:19:13;;;;;;;4.85;4.10;;;;;;;;;;5010979;28;20216;-63
2023/09/18 02:21:40;;;;;;;7.32;4.30;;;;;;;;;;5009826;28;20213;-64
2023/09/18 02:24:08;;;;;;;5.85;4.50;;;;;;;;;;5010905;28;20202;-63
2023/09/18 02:26:35;;;;;;;5.90;4.82;;;;;;;;;;5010246;28;20219;-63
2023/09/18 02:29:04;;;;;;;8.93;4.57;;;;;;;;;;5009891;28;20209;-63
2023/09/18 02:31:31;;;;;;;5.95;4.53;;;;;;;;;;5009831;28;20743;-63
2023/09/18 02:33:59;;;;;;;6.50;4.63;;;;;;;;;;5009174;28;20232;-63
2023/09/18 02:36:26;;;;;;;7.97;4.97;;;;;;;;;;5010059;28;20209;-63
2023/09/18 02:38:53;;;;;;;7.38;4.47;;;;;;;;;;5008817;28;20766;-64
2023/09/18 02:41:20;;;;;;;6.82;4.43;;;;;;;;;;5010077;28;20292;-63
2023/09/18 02:43:47;;;;;;;4.55;4.25;;;;;;;;;;5010019;28;20286;-63
2023/09/18 02:46:15;;;;;;;6.53;4.60;;;;;;;;;;5009683;28;20211;-63
2023/09/18 02:48:42;;;;;;;6.22;5.47;;;;;;;;;;5009577;28;20292;-63
2023/09/18 02:51:10;;;;;;;5.28;4.00;;;;;;;;;;5009805;28;20216;-64
2023/09/18 02:53:37;;;;;;;6.70;5.22;;;;;;;;;;5008531;28;20326;-64
2023/09/18 02:56:04;;;;;;;4.72;4.40;;;;;;;;;;5009480;28;20233;-63
2023/09/18 02:58:31;;;;;;;7.82;4.18;;;;;;;;;;5009143;28;20229;-63
2023/09/18 03:00:59;;;;;;;6.82;4.43;;;;;;;;;;5000059;28;20213;-63
2023/09/18 03:03:26;;;;;;;8.00;4.53;;;;;;;;;;5009573;28;20209;-63
2023/09/18 03:05:53;;;;;;;7.72;5.05;;;;;;;;;;5001498;28;20209;-63
2023/09/18 03:08:22;;;;;;;5.22;4.65;;;;;;;;;;5008536;28;20595;-64
2023/09/18 03:10:49;;;;;;;5.93;4.15;;;;;;;;;;5009493;28;20224;-64
2023/09/18 03:13:16;;;;;;;5.35;4.90;;;;;;;;;;5009154;28;20679;-63
2023/09/18 03:15:46;;;;;;;7.18;4.88;;;;;;;;;;5009038;28;20236;-64
2023/09/18 03:18:14;;;;;;;7.63;4.35;;;;;;;;;;5008591;28;20722;-64
2023/09/18 03:20:41;;;;;;;4.22;3.88;;;;;;;;;;5008917;28;20304;-63
2023/09/18 03:23:08;;;;;;;5.45;4.43;;;;;;;;;;5009381;28;20205;-63
2023/09/18 03:25:37;;;;;;;5.10;4.43;;;;;;;;;;5007370;28;20205;-64
2023/09/18 03:28:04;;;;;;;4.10;3.78;;;;;;;;;;5003619;28;20301;-63
2023/09/18 03:30:31;;;;;;;8.15;4.68;;;;;;;;;;5009070;28;20208;-63
2023/09/18 03:32:58;;;;;;;4.95;4.45;;;;;;;;;;5009158;28;20212;-63
2023/09/18 03:35:25;;;;;;;5.10;4.60;;;;;;;;;;5008715;28;20239;-64
2023/09/18 03:37:54;;;;;;;4.15;3.78;;;;;;;;;;5009286;28;20233;-63
2023/09/18 03:40:21;;;;;;;6.95;4.35;;;;;;;;;;5008697;28;20256;-63
2023/09/18 03:42:50;;;;;;;7.63;4.25;;;;;;;;;;5009008;28;20212;-63
2023/09/18 03:45:18;;;;;;;4.90;3.97;;;;;;;;;;5008194;28;20299;-63
2023/09/18 03:47:46;;;;;;;5.88;3.75;;;;;;;;;;5009122;28;20220;-63
2023/09/18 03:50:13;;;;;;;9.23;4.65;;;;;;;;;;5008864;28;20205;-63
2023/09/18 03:52:40;;;;;;;5.60;4.25;;;;;;;;;;5008300;28;20298;-64
2023/09/18 03:55:08;;;;;;;4.78;3.97;;;;;;;;;;5008790;28;20586;-63
2023/09/18 03:57:36;;;;;;;8.43;4.75;;;;;;;;;;5009093;28;20258;-64
2023/09/18 04:00:05;;;;;;;4.63;3.88;;;;;;;;;;5008849;28;20212;-64
2023/09/18 04:02:32;;;;;;;4.18;3.88;;;;;;;;;;5008746;28;20201;-64
2023/09/18 04:05:00;;;;;;;4.75;4.32;;;;;;;;;;5007853;28;20220;-63
2023/09/18 04:07:27;;;;;;;4.68;4.00;;;;;;;;;;5009231;28;20690;-63
2023/09/18 04:09:54;;;;;;;5.28;4.50;;;;;;;;;;5008838;28;20205;-63
2023/09/18 04:12:21;;;;;;;4.57;4.13;;;;;;;;;;5009255;28;20594;-63
2023/09/18 04:14:48;;;;;;;4.50;4.20;;;;;;;;;;5008864;28;20220;-64
2023/09/18 04:17:16;;;;;;;4.13;3.72;;;;;;;;;;5008836;28;20201;-64
2023/09/18 04:19:43;;;;;;;4.40;4.00;;;;;;;;;;5008723;28;20212;-64
2023/09/18 04:22:10;;;;;;;5.35;4.30;;;;;;;;;;5001630;28;20228;-64
2023/09/18 04:24:37;;;;;;;6.63;4.57;;;;;;;;;;5007664;28;20209;-64
2023/09/18 04:27:05;;;;;;;8.43;3.88;;;;;;;;;;5007635;28;20209;-64
2023/09/18 04:29:32;;;;;;;7.25;4.05;;;;;;;;;;5008600;28;20201;-64
2023/09/18 04:31:59;;;;;;;7.43;4.13;;;;;;;;;;5008990;28;20236;-64
2023/09/18 04:34:27;;;;;;;3.58;3.38;;;;;;;;;;5008487;28;20239;-64
2023/09/18 04:36:54;;;;;;;4.30;3.63;;;;;;;;;;4995654;28;20217;-64
2023/09/18 04:39:22;;;;;;;5.70;3.67;;;;;;;;;;5005059;28;20209;-64
2023/09/18 04:41:49;;;;;;;3.67;3.38;;;;;;;;;;5008606;28;20215;-64
2023/09/18 04:44:17;;;;;;;5.55;4.25;;;;;;;;;;5008263;28;20703;-62
2023/09/18 04:46:44;;;;;;;4.40;3.90;;;;;;;;;;5007957;28;20205;-64
2023/09/18 04:49:11;;;;;;;6.38;3.92;;;;;;;;;;5000279;28;20209;-63
2023/09/18 04:51:41;;;;;;;4.30;3.90;;;;;;;;;;5008576;28;20705;-63
2023/09/18 04:54:08;;;;;;;4.25;3.50;;;;;;;;;;5011352;28;20560;-64
2023/09/18 04:56:35;;;;;;;3.70;3.40;;;;;;;;;;5011575;28;20236;-64
2023/09/18 04:59:03;;;;;;;5.68;3.53;;;;;;;;;;5011522;28;20224;-64
2023/09/18 05:01:30;;;;;;;5.85;3.88;;;;;;;;;;5010832;28;20240;-64
2023/09/18 05:03:57;;;;;;;4.88;3.65;;;;;;;;;;5006663;28;20205;-64
2023/09/18 05:06:24;;;;;;;3.65;3.20;;;;;;;;;;5001251;28;20232;-64
2023/09/18 05:08:54;;;;;;;4.68;3.33;;;;;;;;;;5011348;28;20201;-64
2023/09/18 05:11:21;;;;;;;3.33;3.10;;;;;;;;;;5007662;28;20215;-64
2023/09/18 05:13:49;;;;;;;7.35;3.38;;;;;;;;;;5012512;28;20675;-64
2023/09/18 05:16:17;;;;;;;3.50;3.20;;;;;;;;;;5007866;28;20283;-64
2023/09/18 05:18:44;;;;;;;3.55;3.25;;;;;;;;;;5001009;28;20257;-64
2023/09/18 05:21:11;;;;;;;4.75;3.22;;;;;;;;;;5009018;28;20224;-64
2023/09/18 05:23:38;;;;;;;5.20;3.00;;;;;;;;;;5010893;28;20201;-64
2023/09/18 05:26:06;;;;;;;4.57;3.15;;;;;;;;;;5010226;28;20209;-64
2023/09/18 05:28:33;;;;;;;6.88;3.25;;;;;;;;;;4992415;28;20229;-73
2023/09/18 05:31:04;;;;;;;5.82;3.03;;;;;;;;;;5008993;28;20212;-73
2023/09/18 05:33:32;;;;;;;3.33;3.08;;;;;;;;;;5011265;28;20312;-73
2023/09/18 05:35:59;;;;;;;5.82;2.92;;;;;;;;;;5011513;28;20244;-74
2023/09/18 05:38:26;;;;;;;5.97;2.88;;;;;;;;;;5008993;28;20753;-74
2023/09/18 05:40:53;;;;;;;3.88;2.70;;;;;;;;;;5011393;28;20216;-74
2023/09/18 05:43:22;;;;;;;3.13;2.38;;;;;;;;;;5005290;28;20209;-71
2023/09/18 05:45:49;;;;;;;4.13;3.15;;;;;;;;;;4991629;28;20208;-71
2023/09/18 05:48:17;;;;;;;3.20;2.90;;;;;;;;;;4991753;28;20293;-72
2023/09/18 05:50:44;;;;;;;4.97;2.75;;;;;;;;;;5003543;28;20685;-71
2023/09/18 05:53:11;;;;;;;5.70;2.83;;;;;;;;;;5010890;28;20591;-72
2023/09/18 05:55:38;;;;;;;4.18;2.70;;;;;;;;;;5009946;28;20312;-72
2023/09/18 05:58:06;;;;;;;4.38;2.90;;;;;;;;;;5010716;28;20233;-71
2023/09/18 06:00:36;;;;;;;4.28;2.80;;;;;;;;;;5010180;28;20698;-71
2023/09/18 06:03:05;;;;;;;5.10;2.80;;;;;;;;;;5008853;28;20259;-71
2023/09/18 06:05:33;;;;;;;6.13;2.90;;;;;;;;;;5009483;28;20201;-72
2023/09/18 06:08:00;;;;;;;7.72;2.75;;;;;;;;;;5009618;28;20213;-71
2023/09/18 06:10:27;;;;;;;6.63;2.95;;;;;;;;;;5009897;28;20212;-71
2023/09/18 06:12:55;;;;;;;8.68;2.80;;;;;;;;;;5009903;28;20209;-72
2023/09/18 06:15:22;;;;;;;6.35;2.80;;;;;;;;;;5008920;28;20703;-71
2023/09/18 06:17:50;;;;;;;6.45;2.92;;;;;;;;;;5008963;28;20232;-71
2023/09/18 06:20:17;;;;;;;4.15;3.00;;;;;;;;;;5010281;28;20209;-72
2023/09/18 06:22:44;;;;;;;5.28;3.05;;;;;;;;;;5010155;28;20209;-71
2023/09/18 06:25:11;;;;;;;5.25;2.95;;;;;;;;;;5009981;28;20204;-72
2023/09/18 06:27:39;;;;;;;13.48;2.78;;;;;;;;;;5009495;28;20209;-72
2023/09/18 06:30:07;;;;;;;3.75;2.80;;;;;;;;;;5010335;28;20212;-72
2023/09/18 06:32:34;;;;;;;5.20;2.95;;;;;;;;;;5010498;28;20221;-71
2023/09/18 06:35:03;;;;;;;9.23;3.38;;;;;;;;;;5008820;28;20225;-72
2023/09/18 06:37:30;;;;;;;4.47;2.70;;;;;;;;;;5007007;28;20221;-72
2023/09/18 06:39:57;;;;;;;6.72;2.55;;;;;;;;;;5001639;28;20220;-72
2023/09/18 06:42:24;;;;;;;4.88;2.10;;;;;;;;;;5004956;28;20212;-72
2023/09/18 06:44:52;;;;;;;7.95;2.15;;;;;;;;;;5002262;28;20209;-71
2023/09/18 06:47:19;;;;;;;4.00;2.00;;;;;;;;;;5009620;28;20213;-73
2023/09/18 06:49:47;;;;;;;4.43;2.22;;;;;;;;;;5004930;28;20210;-72
2023/09/18 06:52:16;;;;;;;7.75;2.55;;;;;;;;;;5009330;28;20607;-72
2023/09/18 06:54:43;;;;;;;5.68;2.33;;;;;;;;;;5007926;28;20671;-71
2023/09/18 06:57:11;;;;;;;5.32;2.33;;;;;;;;;;5001745;28;20646;-72
2023/09/18 06:59:38;;;;;;;8.68;2.58;;;;;;;;;;4993999;28;20581;-72
2023/09/18 07:02:05;;;;;;;4.22;2.53;;;;;;;;;;5008062;28;20209;-71
2023/09/18 07:04:32;;;;;;;5.90;2.20;;;;;;;;;;5007791;28;20212;-72
2023/09/18 07:06:59;;;;;;;6.47;2.60;;;;;;;;;;4999474;28;20214;-72
2023/09/18 07:09:27;;;;;;;7.85;2.72;;;;;;;;;;5001001;28;20215;-62
2023/09/18 07:11:55;;;;;;;6.75;2.33;;;;;;;;;;5008739;28;20204;-64
2023/09/18 07:14:22;;;;;;;6.22;2.20;;;;;;;;;;5008408;28;20217;-64
2023/09/18 07:16:49;;;;;;;3.40;2.65;;;;;;;;;;5008277;28;20232;-62
2023/09/18 07:19:16;;;;;;;5.47;2.50;;;;;;;;;;4989734;28;20212;-66
2023/09/18 07:21:44;;;;;;;10.85;2.75;;;;;;;;;;5009146;28;20205;-63
2023/09/18 07:24:16;;;;;;;7.75;2.50;;;;;;;;;;5008921;28;20217;-63
2023/09/18 07:26:44;;;;;;;9.38;2.55;;;;;;;;;;5008748;28;20244;-62
2023/09/18 07:29:11;;;;;;;13.32;2.17;;;;;;;;;;5008682;28;20209;-61
2023/09/18 07:31:38;;;;;;;10.10;2.70;;;;;;;;;;5008798;28;20906;-61
2023/09/18 07:34:05;;;;;;;5.82;2.72;;;;;;;;;;5008192;28;20580;-63
2023/09/18 07:36:32;;;;;;;9.40;2.95;;;;;;;;;;5008635;28;20228;-62
2023/09/18 07:38:59;;;;;;;4.95;2.55;;;;;;;;;;5007927;28;20220;-63
2023/09/18 07:41:26;;;;;;;7.18;1.88;;;;;;;;;;5004913;28;20577;-64
2023/09/18 07:43:57;;;;;;;7.35;3.17;;;;;;;;;;5008505;28;20217;-65
2023/09/18 07:46:24;;;;;;;7.55;2.10;;;;;;;;;;4999881;28;20710;-65
2023/09/18 07:48:51;;;;;;;4.35;2.03;;;;;;;;;;5008583;28;20228;-65
2023/09/18 07:51:18;;;;;;;7.82;2.20;;;;;;;;;;5008176;28;20209;-65
2023/09/18 07:53:45;;;;;;;5.90;1.88;;;;;;;;;;5004089;28;20209;-65
2023/09/18 07:56:12;;;;;;;2.90;2.22;;;;;;;;;;5000424;28;20259;-65
2023/09/18 07:58:39;;;;;;;3.22;1.80;;;;;;;;;;5008130;28;20749;-62
2023/09/18 08:01:09;;;;;;;8.07;2.13;;;;;;;;;;4999919;28;20900;-63
2023/09/18 08:03:36;;;;;;;6.50;2.38;;;;;;;;;;4996662;28;20201;-63
2023/09/18 08:06:04;;;;;;;3.85;2.40;;;;;;;;;;5005361;28;20216;-64
2023/09/18 08:08:33;;;;;;;4.57;2.88;;;;;;;;;;5001403;28;20206;-64
2023/09/18 08:11:00;;;;;;;6.93;2.65;;;;;;;;;;4991142;28;20496;-64
2023/09/18 08:13:27;;;;;;;3.42;2.03;;;;;;;;;;5002500;28;20213;-64
2023/09/18 08:15:54;;;;;;;4.30;2.63;;;;;;;;;;4998270;28;20225;-64
2023/09/18 08:18:26;;;;;;;5.03;2.33;;;;;;;;;;4990518;28;20228;-64
2023/09/18 08:20:53;;;;;;;6.43;2.70;;;;;;;;;;5004483;28;20768;-64
2023/09/18 08:23:20;;;;;;;9.50;2.40;;;;;;;;;;5005141;28;20220;-64
2023/09/18 08:25:48;;;;;;;5.15;2.20;;;;;;;;;;5001199;28;20205;-64
2023/09/18 08:28:16;;;;;;;7.35;2.28;;;;;;;;;;4990325;28;20217;-64
2023/09/18 08:30:46;;;;;;;7.68;2.25;;;;;;;;;;5008968;28;20696;-64
2023/09/18 08:33:14;;;;;;;4.72;1.80;;;;;;;;;;5005242;28;20299;-64
2023/09/18 08:35:44;;;;;;;4.13;2.63;;;;;;;;;;5009178;28;20229;-66
2023/09/18 08:38:11;;;;;;;5.68;1.80;;;;;;;;;;5010747;28;20224;-68
2023/09/18 08:40:38;;;;;;;8.55;2.00;;;;;;;;;;5011322;28;20228;-67
2023/09/18 08:43:06;;;;;;;6.93;2.05;;;;;;;;;;5010811;28;20236;-68
2023/09/18 08:45:36;;;;;;;8.52;2.00;;;;;;;;;;4995334;28;20214;-66
2023/09/18 08:48:04;;;;;;;6.05;2.00;;;;;;;;;;4998565;28;20214;-68
2023/09/18 08:50:31;;;;;;;5.18;1.90;;;;;;;;;;5003609;28;20598;-69
2023/09/18 08:52:59;;;;;;;5.50;1.95;;;;;;;;;;5006115;28;20209;-66
2023/09/18 08:55:26;;;;;;;4.47;1.80;;;;;;;;;;5010220;28;20213;-66
2023/09/18 08:57:54;;;;;;;8.15;2.42;;;;;;;;;;5006190;28;20331;-66
2023/09/18 09:00:21;;;;;;;7.15;1.85;;;;;;;;;;4994033;28;20689;-67
2023/09/18 09:02:51;;;;;;;2.38;1.73;;;;;;;;;;5001145;28;20220;-67
2023/09/18 09:05:18;;;;;;;5.53;1.80;;;;;;;;;;5001424;28;20295;-66
2023/09/18 09:07:45;;;;;;;4.60;1.60;;;;;;;;;;5008407;28;20205;-67
2023/09/18 09:10:14;;;;;;;4.20;1.95;;;;;;;;;;5005347;28;20213;-67
2023/09/18 09:12:53;;;;;;;5.80;1.60;;;;;;;;;;5008013;28;20220;-67
2023/09/18 09:15:20;;;;;;;4.55;1.42;;;;;;;;;;5008277;28;20213;-67
2023/09/18 09:17:47;;;;;;;6.22;1.65;;;;;;;;;;5007810;28;20235;-68
2023/09/18 09:20:15;;;;;;;4.25;1.58;;;;;;;;;;5008747;28;20213;-67
2023/09/18 09:22:43;;;;;;;3.25;1.17;;;;;;;;;;5009255;28;20209;-67
2023/09/18 09:25:28;;;;;;;3.40;1.20;;;;;;;;;;5009990;28;20217;-67
2023/09/18 09:27:56;;;;;;;4.07;1.33;;;;;;;;;;5009034;28;20202;-67
2023/09/18 09:30:24;;;;;;;4.93;1.33;;;;;;;;;;5004820;28;20208;-67
2023/09/18 09:32:52;;;;;;;2.65;1.17;;;;;;;;;;5004337;28;20591;-67
2023/09/18 09:35:27;;;;;;;3.70;1.40;;;;;;;;;;5009695;28;20205;-68
2023/09/18 09:37:55;;;;;;;2.70;1.08;;;;;;;;;;5004153;28;20204;-68
2023/09/18 09:40:23;;;;;;;2.58;1.10;;;;;;;;;;4997309;28;20224;-67
2023/09/18 09:42:53;;;;;;;5.85;1.13;;;;;;;;;;5001785;28;20220;-68
2023/09/18 09:45:22;;;;;;;2.75;1.40;;;;;;;;;;5005847;28;20224;-68
2023/09/18 09:47:49;;;;;;;4.22;1.05;;;;;;;;;;5001073;28;20212;-68
2023/09/18 09:50:18;;;;;;;3.20;1.15;;;;;;;;;;5005536;28;20233;-68
2023/09/18 09:52:46;;;;;;;3.20;1.10;;;;;;;;;;4999936;28;20205;-67
2023/09/18 09:55:20;;;;;;;2.35;1.02;;;;;;;;;;5002801;28;20701;-68
2023/09/18 09:57:51;;;;;;;6.53;1.00;;;;;;;;;;5008086;28;20327;-69
2023/09/18 10:00:30;;;;;;;1.40;0.80;;;;;;;;;;5008754;28;20744;-69
2023/09/18 10:03:02;;;;;;;2.00;0.93;;;;;;;;;;5009156;28;20268;-69
2023/09/18 10:05:31;;;;;;;3.85;1.10;;;;;;;;;;5009822;28;20223;-69
2023/09/18 10:08:03;;;;;;;2.22;1.00;;;;;;;;;;5008619;28;20209;-69
2023/09/18 10:10:32;;;;;;;0.95;0.80;;;;;;;;;;5009249;28;20213;-69
2023/09/18 10:13:02;;;;;;;2.50;0.93;;;;;;;;;;5009083;28;20859;-70
2023/09/18 10:15:30;;;;;;;4.60;0.82;;;;;;;;;;5006666;28;20229;-67
2023/09/18 10:17:59;;;;;;;2.72;0.85;;;;;;;;;;4996312;28;20323;-69
2023/09/18 10:20:29;;;;;;;1.75;0.60;;;;;;;;;;5008636;28;20205;-67
2023/09/18 10:22:58;;;;;;;1.75;1.10;;;;;;;;;;5007590;28;20266;-71
2023/09/18 10:25:27;;;;;;;0.88;0.70;;;;;;;;;;5002912;28;20556;-73
2023/09/18 10:27:58;;;;;;;2.00;0.68;;;;;;;;;;5007966;28;20235;-70
2023/09/18 10:30:26;;;;;;;0.88;0.82;;;;;;;;;;5007656;28;20219;-68
2023/09/18 10:32:54;;;;;;;2.78;0.82;;;;;;;;;;5007166;28;20221;-71
2023/09/18 10:35:21;;;;;;;1.42;0.80;;;;;;;;;;4989162;28;20221;-71
2023/09/18 10:37:51;;;;;;;2.22;0.63;;;;;;;;;;4991365;28;20243;-71
2023/09/18 10:40:18;;;;;;;0.60;0.60;;;;;;;;;;5007270;28;20274;-69
2023/09/18 10:42:47;;;;;;;1.83;0.77;;;;;;;;;;5007139;28;20251;-68
2023/09/18 10:45:15;;;;;;;0.77;0.57;;;;;;;;;;5007037;28;20224;-69
2023/09/18 10:47:45;;;;;;;1.42;0.70;;;;;;;;;;5008030;28;20205;-69
2023/09/18 10:50:12;;;;;;;1.25;0.70;;;;;;;;;;5008280;28;20216;-72
2023/09/18 10:52:44;;;;;;;0.63;0.52;;;;;;;;;;5001606;28;20228;-71
2023/09/18 10:55:15;;;;;;;1.17;0.70;;;;;;;;;;5007945;28;20213;-73
2023/09/18 10:57:51;;;;;;;3.33;0.90;;;;;;;;;;5006403;28;20233;-72
2023/09/18 11:00:22;;;;;;;4.30;0.77;;;;;;;;;;5007510;28;20270;-71
2023/09/18 11:02:50;;;;;;;4.13;0.85;;;;;;;;;;5002981;28;20217;-71
2023/09/18 11:05:28;;;;;;;2.60;0.50;;;;;;;;;;5006049;28;20563;-71
2023/09/18 11:08:10;;;;;;;3.63;0.70;;;;;;;;;;4996948;28;20329;-68
2023/09/18 11:10:56;;;;;;;0.95;0.73;;;;;;;;;;5005359;28;20213;-75
2023/09/18 11:13:29;;;;;;;2.50;0.80;;;;;;;;;;5005046;28;20588;-72
2023/09/18 11:16:00;;;;;;;1.00;0.85;;;;;;;;;;5005369;28;20275;-79
2023/09/18 11:18:33;;;;;;;1.45;0.60;;;;;;;;;;5004193;28;20213;-76
2023/09/18 11:21:10;;;;;;;2.28;0.63;;;;;;;;;;5002787;28;20209;-76
2023/09/18 11:23:38;;;;;;;2.38;0.98;;;;;;;;;;5007319;28;20703;-75
2023/09/18 11:26:08;;;;;;;1.13;0.60;;;;;;;;;;5007428;28;20271;-78
2023/09/18 11:28:37;;;;;;;0.60;0.60;;;;;;;;;;5001234;28;20213;-67
2023/09/18 11:31:04;;;;;;;1.75;0.90;;;;;;;;;;5006474;28;20219;-69
2023/09/18 11:33:31;;;;;;;1.85;0.73;;;;;;;;;;5006728;28;20240;-69
2023/09/18 11:35:59;;;;;;;0.73;0.63;;;;;;;;;;5007274;28;20586;-67
2023/09/18 11:38:26;;;;;;;1.65;0.70;;;;;;;;;;5006422;28;20232;-68
2023/09/18 11:40:54;;;;;;;0.40;0.40;;;;;;;;;;5006452;28;20216;-66
2023/09/18 11:43:25;;;;;;;0.88;0.73;;;;;;;;;;5009699;28;20209;-77
2023/09/18 11:45:52;;;;;;;2.70;0.77;;;;;;;;;;5008171;28;21005;-66
2023/09/18 11:48:19;;;;;;;0.73;0.73;;;;;;;;;;5007095;28;20223;-66
2023/09/18 11:50:50;;;;;;;1.33;0.80;;;;;;;;;;5006871;28;20586;-67
2023/09/18 11:53:18;;;;;;;1.23;0.63;;;;;;;;;;5007574;28;20299;-65
2023/09/18 11:55:45;;;;;;;2.95;0.63;;;;;;;;;;5007998;28;20236;-66
2023/09/18 11:58:13;;;;;;;0.70;0.70;;;;;;;;;;5005237;28;20240;-66
2023/09/18 12:00:46;;;;;;;1.27;1.05;;;;;;;;;;5007881;28;20299;-66
2023/09/18 12:03:24;;;;;;;1.02;0.70;;;;;;;;;;5008701;28;20209;-66
2023/09/18 12:05:52;;;;;;;1.38;0.80;;;;;;;;;;4998329;28;20212;-66
2023/09/18 12:08:19;;;;;;;2.45;1.20;;;;;;;;;;5011840;28;20197;-66
2023/09/18 12:10:49;;;;;;;1.33;1.27;;;;;;;;;;4997505;28;20211;-66
2023/09/18 12:13:16;;;;;;;3.00;1.27;;;;;;;;;;5008605;28;20306;-64
2023/09/18 12:15:45;;;;;;;1.70;1.35;;;;;;;;;;5008840;28;20577;-65
2023/09/18 12:18:13;;;;;;;3.25;1.25;;;;;;;;;;5007732;28;20723;-66
2023/09/18 12:20:46;;;;;;;1.35;0.98;;;;;;;;;;5006279;28;20216;-66
2023/09/18 12:23:13;;;;;;;0.77;0.77;;;;;;;;;;4998772;28;20241;-66
2023/09/18 12:25:40;;;;;;;2.58;0.70;;;;;;;;;;5004413;28;20204;-64
2023/09/18 12:28:07;;;;;;;3.30;0.70;;;;;;;;;;5011617;28;20216;-64
2023/09/18 12:30:34;;;;;;;0.63;0.63;;;;;;;;;;5000459;28;20213;-63
2023/09/18 12:33:03;;;;;;;4.43;1.08;;;;;;;;;;5004132;28;20220;-64
2023/09/18 12:35:30;;;;;;;2.47;0.68;;;;;;;;;;4992507;28;20220;-64
2023/09/18 12:37:58;;;;;;;0.80;0.70;;;;;;;;;;5007914;28;20240;-64
2023/09/18 12:40:25;;;;;;;2.38;0.95;;;;;;;;;;5010443;28;20213;-65
2023/09/18 12:42:53;;;;;;;0.80;0.80;;;;;;;;;;5011125;28;20204;-65
2023/09/18 12:45:20;;;;;;;0.95;0.77;;;;;;;;;;5010822;28;20216;-65
2023/09/18 12:47:48;;;;;;;1.33;0.70;;;;;;;;;;5011059;28;20296;-65
2023/09/18 12:50:16;;;;;;;4.45;0.70;;;;;;;;;;5006638;28;20209;-65
2023/09/18 12:52:46;;;;;;;0.63;0.63;;;;;;;;;;5008530;28;20412;-65
2023/09/18 12:55:24;;;;;;;2.13;0.80;;;;;;;;;;5007543;28;20213;-65
2023/09/18 12:57:51;;;;;;;2.20;0.85;;;;;;;;;;4999926;28;20236;-65
2023/09/18 13:00:21;;;;;;;1.40;0.88;;;;;;;;;;5011240;28;20245;-65
2023/09/18 13:02:48;;;;;;;2.25;1.20;;;;;;;;;;5001634;28;20216;-65
2023/09/18 13:05:20;;;;;;;0.70;0.63;;;;;;;;;;5002386;28;20617;-65
2023/09/18 13:07:48;;;;;;;0.50;0.50;;;;;;;;;;5005662;28;20201;-66
2023/09/18 13:10:15;;;;;;;1.20;0.80;;;;;;;;;;5009789;28;20212;-65
2023/09/18 13:12:43;;;;;;;1.27;0.75;;;;;;;;;;5006382;28;20443;-67
2023/09/18 13:15:12;;;;;;;1.10;0.77;;;;;;;;;;5009511;28;20232;-65
2023/09/18 13:17:44;;;;;;;1.08;0.80;;;;;;;;;;5008518;28;20603;-67
2023/09/18 13:20:13;;;;;;;1.42;0.60;;;;;;;;;;5010197;28;20212;-64
2023/09/18 13:22:42;;;;;;;3.25;0.70;;;;;;;;;;4999200;28;20235;-64
2023/09/18 13:25:10;;;;;;;3.30;1.17;;;;;;;;;;4992753;28;20218;-65
2023/09/18 13:27:38;;;;;;;3.97;1.02;;;;;;;;;;5010065;28;20682;-64
2023/09/18 13:30:07;;;;;;;0.85;0.73;;;;;;;;;;5007673;28;20700;-64
2023/09/18 13:32:35;;;;;;;0.85;0.68;;;;;;;;;;5010032;28;20205;-64
2023/09/18 13:35:03;;;;;;;2.53;0.93;;;;;;;;;;5010672;28;20213;-69
2023/09/18 13:37:30;;;;;;;0.80;0.80;;;;;;;;;;5009248;28;20228;-68
2023/09/18 13:40:00;;;;;;;1.65;0.88;;;;;;;;;;5006885;28;20212;-68
2023/09/18 13:42:28;;;;;;;0.82;0.73;;;;;;;;;;5007248;28;20212;-68
2023/09/18 13:44:56;;;;;;;1.02;0.82;;;;;;;;;;5002061;28;20211;-70
2023/09/18 13:47:23;;;;;;;2.13;0.90;;;;;;;;;;5005869;28;20663;-70
2023/09/18 13:49:51;;;;;;;0.80;0.80;;;;;;;;;;4990116;28;20221;-71
2023/09/18 13:52:19;;;;;;;1.40;0.85;;;;;;;;;;4989225;28;20271;-71
2023/09/18 13:54:50;;;;;;;1.73;0.93;;;;;;;;;;5004699;28;20213;-71
2023/09/18 13:57:19;;;;;;;0.80;0.80;;;;;;;;;;5006733;28;20311;-74
2023/09/18 13:59:47;;;;;;;2.22;0.90;;;;;;;;;;5004946;28;20217;-70
2023/09/18 14:02:14;;;;;;;1.25;1.10;;;;;;;;;;5008074;28;20205;-71
2023/09/18 14:04:41;;;;;;;0.98;0.77;;;;;;;;;;5008614;28;20667;-72
2023/09/18 14:07:08;;;;;;;7.03;0.80;;;;;;;;;;5006752;28;20213;-74
2023/09/18 14:09:35;;;;;;;3.03;0.80;;;;;;;;;;5001508;28;20737;-67
2023/09/18 14:12:03;;;;;;;3.63;1.10;;;;;;;;;;5005692;28;20208;-66
2023/09/18 14:14:32;;;;;;;2.75;1.00;;;;;;;;;;5007075;28;20653;-67
2023/09/18 14:16:59;;;;;;;1.15;0.75;;;;;;;;;;5007716;28;20752;-61
2023/09/18 14:19:26;;;;;;;1.10;0.90;;;;;;;;;;5009370;28;20204;-63
2023/09/18 14:21:53;;;;;;;2.35;1.00;;;;;;;;;;5009184;28;20644;-63
2023/09/18 14:24:24;;;;;;;2.45;1.20;;;;;;;;;;5008336;28;20217;-65
2023/09/18 14:26:51;;;;;;;1.77;1.02;;;;;;;;;;5007620;28;20219;-65
2023/09/18 14:29:18;;;;;;;1.60;1.25;;;;;;;;;;5006754;28;20204;-65
2023/09/18 14:31:46;;;;;;;2.50;1.13;;;;;;;;;;5008729;28;20555;-65
2023/09/18 14:34:13;;;;;;;1.42;0.75;;;;;;;;;;5008783;28;20213;-65
2023/09/18 14:36:40;;;;;;;2.50;0.98;;;;;;;;;;5008352;28;20224;-65
2023/09/18 14:39:08;;;;;;;4.28;1.05;;;;;;;;;;5006933;28;20330;-65
2023/09/18 14:41:36;;;;;;;1.25;1.20;;;;;;;;;;5006696;28;20216;-66
2023/09/18 14:44:04;;;;;;;0.90;0.90;;;;;;;;;;5002698;28;20785;-65
2023/09/18 14:46:31;;;;;;;4.90;1.25;;;;;;;;;;5007197;28;20219;-65
2023/09/18 14:49:00;;;;;;;1.73;1.00;;;;;;;;;;5007767;28;20224;-65